Time;durP1;ratioP1;P1;durP2;ratioP2;P2;SDS_P1;SDS_P2;PMS_P1;PMS_P2;Temp;Humidity;BMP_temperature;BMP_pressure;BME280_temperature;BME280_humidity;BME280_pressure;Samples;Min_cycle;Max_cycle;Signal;HPM_P1;HPM_P2
2022/08/03 00:00:02;;;;;;;0.00;0.00;;;;;;;;;;5038835;28;20096;-62
2022/08/03 00:02:27;;;;;;;0.00;0.00;;;;;;;;;;5040603;28;20600;-62
2022/08/03 00:04:52;;;;;;;0.00;0.00;;;;;;;;;;5039141;28;20045;-61
2022/08/03 00:07:17;;;;;;;0.00;0.00;;;;;;;;;;5040358;28;20028;-61
2022/08/03 00:09:43;;;;;;;0.00;0.00;;;;;;;;;;5039295;28;20024;-61
2022/08/03 00:12:08;;;;;;;0.00;0.00;;;;;;;;;;5041488;28;20056;-61
2022/08/03 00:14:33;;;;;;;0.00;0.00;;;;;;;;;;5039698;28;20064;-61
2022/08/03 00:16:59;;;;;;;0.00;0.00;;;;;;;;;;5039884;28;20033;-61
2022/08/03 00:19:32;;;;;;;0.00;0.00;;;;;;;;;;5040749;28;20470;-60
2022/08/03 00:21:58;;;;;;;0.00;0.00;;;;;;;;;;5039997;28;20042;-61
2022/08/03 00:24:23;;;;;;;0.10;0.10;;;;;;;;;;5040590;28;20378;-61
2022/08/03 00:26:48;;;;;;;0.00;0.00;;;;;;;;;;5040181;28;20029;-61
2022/08/03 00:29:13;;;;;;;0.00;0.00;;;;;;;;;;5039690;28;20482;-62
2022/08/03 00:31:39;;;;;;;0.00;0.00;;;;;;;;;;5040616;28;20318;-61
2022/08/03 00:34:05;;;;;;;0.17;0.17;;;;;;;;;;5040132;28;20370;-61
2022/08/03 00:36:30;;;;;;;0.00;0.00;;;;;;;;;;5039884;28;20032;-61
2022/08/03 00:38:55;;;;;;;0.00;0.00;;;;;;;;;;5039284;28;20013;-61
2022/08/03 00:41:21;;;;;;;0.82;0.30;;;;;;;;;;5042268;28;20357;-62
2022/08/03 00:43:46;;;;;;;0.00;0.00;;;;;;;;;;5040236;28;20017;-62
2022/08/03 00:46:11;;;;;;;0.00;0.00;;;;;;;;;;5039252;28;20052;-61
2022/08/03 00:48:37;;;;;;;0.00;0.00;;;;;;;;;;5039960;28;20450;-61
2022/08/03 00:51:02;;;;;;;2.43;0.73;;;;;;;;;;5039135;28;20017;-61
2022/08/03 00:53:27;;;;;;;0.00;0.00;;;;;;;;;;5039997;28;20286;-61
2022/08/03 00:55:52;;;;;;;0.00;0.00;;;;;;;;;;5038760;28;20421;-62
2022/08/03 00:58:18;;;;;;;0.00;0.00;;;;;;;;;;5039040;28;20067;-61
2022/08/03 01:00:43;;;;;;;0.00;0.00;;;;;;;;;;5040138;28;20033;-62
2022/08/03 01:03:09;;;;;;;0.00;0.00;;;;;;;;;;5038967;28;20036;-61
2022/08/03 01:05:53;;;;;;;0.00;0.00;;;;;;;;;;5032012;28;20129;-61
2022/08/03 01:08:22;;;;;;;0.00;0.00;;;;;;;;;;5028959;28;20025;-61
2022/08/03 01:11:02;;;;;;;0.00;0.00;;;;;;;;;;5026745;28;20103;-61
2022/08/03 01:13:33;;;;;;;0.00;0.00;;;;;;;;;;5013410;28;20439;-62
2022/08/03 01:16:00;;;;;;;0.00;0.00;;;;;;;;;;5019377;28;20033;-61
2022/08/03 01:18:33;;;;;;;0.00;0.00;;;;;;;;;;5019693;28;20482;-61
2022/08/03 01:21:01;;;;;;;0.00;0.00;;;;;;;;;;5009892;28;20028;-61
2022/08/03 01:23:44;;;;;;;0.00;0.00;;;;;;;;;;5010657;28;20034;-62
2022/08/03 01:26:31;;;;;;;0.00;0.00;;;;;;;;;;5015910;28;20026;-62
2022/08/03 01:29:03;;;;;;;0.00;0.00;;;;;;;;;;5012834;28;20057;-62
2022/08/03 01:31:31;;;;;;;0.17;0.17;;;;;;;;;;5028582;28;20026;-62
2022/08/03 01:33:58;;;;;;;0.00;0.00;;;;;;;;;;5028730;28;20021;-62
2022/08/03 01:36:28;;;;;;;0.00;0.00;;;;;;;;;;5029361;28;20041;-61
2022/08/03 01:38:55;;;;;;;0.00;0.00;;;;;;;;;;5026748;28;20021;-61
2022/08/03 01:41:21;;;;;;;0.00;0.00;;;;;;;;;;5026846;28;20100;-62
2022/08/03 01:43:48;;;;;;;0.00;0.00;;;;;;;;;;5019573;28;20018;-61
2022/08/03 01:46:19;;;;;;;0.00;0.00;;;;;;;;;;5028680;28;20029;-62
2022/08/03 01:48:49;;;;;;;0.00;0.00;;;;;;;;;;5028049;28;20025;-60
2022/08/03 01:54:05;;;;;;;0.00;0.00;;;;;;;;;;5009130;28;20045;-61
2022/08/03 01:56:31;;;;;;;0.00;0.00;;;;;;;;;;5017159;28;20045;-61
2022/08/03 01:59:07;;;;;;;0.00;0.00;;;;;;;;;;5008751;28;20025;-61
2022/08/03 02:01:45;;;;;;;0.00;0.00;;;;;;;;;;5016807;28;20474;-61
2022/08/03 02:04:27;;;;;;;0.00;0.00;;;;;;;;;;5028472;28;20486;-62
2022/08/03 02:07:01;;;;;;;0.00;0.00;;;;;;;;;;5027655;28;20022;-60
2022/08/03 02:09:31;;;;;;;0.00;0.00;;;;;;;;;;5028892;28;20018;-61
2022/08/03 02:11:56;;;;;;;;;;;;;;;;;;5026474;28;20020;-61
2022/08/03 02:14:27;;;;;;;0.00;0.00;;;;;;;;;;5028288;28;20000;-61
2022/08/03 02:16:53;;;;;;;0.00;0.00;;;;;;;;;;5028385;28;20390;-62
2022/08/03 02:19:21;;;;;;;0.00;0.00;;;;;;;;;;5025934;28;20083;-62
2022/08/03 02:21:50;;;;;;;0.00;0.00;;;;;;;;;;5027453;28;20021;-63
2022/08/03 02:24:15;;;;;;;0.00;0.00;;;;;;;;;;5032096;28;20048;-62
2022/08/03 02:26:53;;;;;;;0.00;0.00;;;;;;;;;;5022544;28;20454;-62
2022/08/03 02:29:20;;;;;;;0.00;0.00;;;;;;;;;;5017907;28;20108;-62
2022/08/03 02:31:48;;;;;;;0.00;0.00;;;;;;;;;;5017113;28;20041;-62
2022/08/03 02:34:20;;;;;;;0.00;0.00;;;;;;;;;;5012279;28;20497;-62
2022/08/03 02:36:48;;;;;;;0.00;0.00;;;;;;;;;;5024068;28;20018;-62
2022/08/03 02:39:15;;;;;;;0.00;0.00;;;;;;;;;;5031424;28;20033;-62
2022/08/03 02:41:42;;;;;;;0.00;0.00;;;;;;;;;;5032100;28;20018;-62
2022/08/03 02:44:11;;;;;;;0.00;0.00;;;;;;;;;;5030383;28;20029;-61
2022/08/03 02:46:37;;;;;;;0.00;0.00;;;;;;;;;;5032048;28;20025;-61
2022/08/03 02:49:02;;;;;;;0.00;0.00;;;;;;;;;;5031949;28;20052;-61
2022/08/03 02:51:29;;;;;;;0.00;0.00;;;;;;;;;;5032122;28;20029;-61
2022/08/03 02:53:55;;;;;;;0.00;0.00;;;;;;;;;;5031839;28;20029;-62
2022/08/03 02:56:21;;;;;;;0.00;0.00;;;;;;;;;;5031240;28;20025;-62
2022/08/03 02:58:48;;;;;;;0.00;0.00;;;;;;;;;;5032262;28;20014;-62
2022/08/03 03:01:13;;;;;;;0.00;0.00;;;;;;;;;;5030825;28;20410;-62
2022/08/03 03:03:39;;;;;;;0.00;0.00;;;;;;;;;;5031828;28;20032;-62
2022/08/03 03:06:05;;;;;;;0.00;0.00;;;;;;;;;;5043245;28;20052;-62
2022/08/03 03:08:31;;;;;;;0.00;0.00;;;;;;;;;;5041593;28;20076;-61
2022/08/03 03:10:58;;;;;;;0.10;0.10;;;;;;;;;;5041571;28;20025;-61
2022/08/03 03:13:23;;;;;;;3.10;1.15;;;;;;;;;;5041148;28;20466;-61
2022/08/03 03:15:49;;;;;;;0.00;0.00;;;;;;;;;;5041599;28;20075;-62
2022/08/03 03:18:15;;;;;;;0.00;0.00;;;;;;;;;;5040996;28;20029;-61
2022/08/03 03:20:41;;;;;;;0.00;0.00;;;;;;;;;;5041590;28;20096;-61
2022/08/03 03:23:07;;;;;;;0.00;0.00;;;;;;;;;;5037588;28;20113;-61
2022/08/03 03:25:33;;;;;;;0.00;0.00;;;;;;;;;;5041218;28;20076;-61
2022/08/03 03:27:58;;;;;;;0.00;0.00;;;;;;;;;;5041229;28;20041;-62
2022/08/03 03:30:24;;;;;;;0.00;0.00;;;;;;;;;;5041208;28;20099;-62
2022/08/03 03:32:49;;;;;;;0.00;0.00;;;;;;;;;;5040960;28;20116;-62
2022/08/03 03:35:15;;;;;;;0.00;0.00;;;;;;;;;;5043607;28;20458;-61
2022/08/03 03:49:56;;;;;;;0.00;0.00;;;;;;;;;;5066757;28;20047;-62
2022/08/03 03:52:21;;;;;;;0.00;0.00;;;;;;;;;;5071193;28;20449;-61
2022/08/03 03:54:46;;;;;;;0.00;0.00;;;;;;;;;;5070087;28;20074;-61
2022/08/03 03:57:12;;;;;;;0.00;0.00;;;;;;;;;;5063715;28;20032;-62
2022/08/03 03:59:38;;;;;;;0.00;0.00;;;;;;;;;;5060365;28;20324;-62
2022/08/03 04:02:04;;;;;;;0.00;0.00;;;;;;;;;;5063731;28;20075;-62
2022/08/03 04:12:43;;;;;;;0.00;0.00;;;;;;;;;;5063209;28;20041;-62
2022/08/03 04:15:09;;;;;;;0.00;0.00;;;;;;;;;;5062344;28;20115;-62
2022/08/03 04:17:35;;;;;;;0.00;0.00;;;;;;;;;;5060171;28;20029;-62
2022/08/03 04:20:01;;;;;;;0.00;0.00;;;;;;;;;;5071048;28;20027;-62
2022/08/03 04:22:28;;;;;;;0.00;0.00;;;;;;;;;;5067720;28;20021;-62
2022/08/03 04:25:07;;;;;;;0.00;0.00;;;;;;;;;;5067698;28;20358;-62
2022/08/03 04:27:34;;;;;;;0.00;0.00;;;;;;;;;;5064009;28;20020;-62
2022/08/03 04:30:01;;;;;;;0.43;0.43;;;;;;;;;;5067863;28;20107;-63
2022/08/03 04:32:27;;;;;;;0.00;0.00;;;;;;;;;;5070081;28;20024;-62
2022/08/03 04:34:52;;;;;;;0.00;0.00;;;;;;;;;;5069639;28;20024;-62
2022/08/03 04:37:23;;;;;;;0.35;0.35;;;;;;;;;;5070287;28;20044;-62
2022/08/03 04:39:49;;;;;;;0.32;0.32;;;;;;;;;;5070219;28;20113;-62
2022/08/03 04:42:14;;;;;;;0.00;0.00;;;;;;;;;;5070303;28;20055;-61
2022/08/03 04:44:40;;;;;;;0.00;0.00;;;;;;;;;;5068987;28;20090;-62
2022/08/03 04:47:06;;;;;;;0.00;0.00;;;;;;;;;;5069184;28;20025;-63
2022/08/03 04:49:31;;;;;;;0.00;0.00;;;;;;;;;;5069780;28;20047;-62
2022/08/03 04:51:57;;;;;;;0.00;0.00;;;;;;;;;;5069586;28;20021;-62
2022/08/03 04:54:22;;;;;;;0.00;0.00;;;;;;;;;;5069582;28;20028;-62
2022/08/03 04:56:47;;;;;;;0.63;0.63;;;;;;;;;;5069711;28;20397;-62
2022/08/03 04:59:12;;;;;;;0.00;0.00;;;;;;;;;;5069926;28;20020;-62
2022/08/03 05:01:38;;;;;;;0.00;0.00;;;;;;;;;;5069382;28;20733;-63
2022/08/03 05:04:04;;;;;;;0.00;0.00;;;;;;;;;;5071032;28;20044;-62
2022/08/03 05:06:29;;;;;;;0.00;0.00;;;;;;;;;;5090190;28;20032;-62
2022/08/03 05:08:54;;;;;;;0.00;0.00;;;;;;;;;;5083986;28;20029;-63
2022/08/03 05:11:20;;;;;;;0.00;0.00;;;;;;;;;;5069861;28;20020;-62
2022/08/03 05:13:45;;;;;;;0.00;0.00;;;;;;;;;;5069113;28;20537;-62
2022/08/03 05:16:11;;;;;;;0.00;0.00;;;;;;;;;;5067295;28;20070;-63
2022/08/03 05:18:36;;;;;;;0.00;0.00;;;;;;;;;;5068617;28;20389;-61
2022/08/03 05:21:01;;;;;;;0.00;0.00;;;;;;;;;;5061785;28;20034;-62
2022/08/03 05:23:26;;;;;;;0.00;0.00;;;;;;;;;;5061555;28;20025;-62
2022/08/03 05:25:52;;;;;;;0.00;0.00;;;;;;;;;;5061864;28;20020;-62
2022/08/03 05:28:17;;;;;;;0.00;0.00;;;;;;;;;;5069608;28;20377;-62
2022/08/03 05:30:42;;;;;;;0.45;0.45;;;;;;;;;;5069224;28;20071;-62
2022/08/03 05:33:07;;;;;;;0.00;0.00;;;;;;;;;;5069734;28;20028;-60
2022/08/03 05:35:34;;;;;;;0.00;0.00;;;;;;;;;;5069142;28;20024;-61
2022/08/03 05:38:00;;;;;;;0.00;0.00;;;;;;;;;;5068814;28;20360;-61
2022/08/03 05:40:25;;;;;;;0.00;0.00;;;;;;;;;;5069126;28;20055;-61
2022/08/03 05:42:51;;;;;;;0.00;0.00;;;;;;;;;;5068968;28;20094;-61
2022/08/03 05:45:17;;;;;;;0.00;0.00;;;;;;;;;;5067782;28;20589;-62
2022/08/03 05:47:45;;;;;;;0.00;0.00;;;;;;;;;;5068326;28;20258;-62
2022/08/03 05:50:11;;;;;;;0.00;0.00;;;;;;;;;;5079909;28;20052;-62
2022/08/03 05:52:36;;;;;;;0.00;0.00;;;;;;;;;;5072169;28;20357;-62
2022/08/03 05:55:02;;;;;;;0.00;0.00;;;;;;;;;;5068774;28;20024;-62
2022/08/03 05:57:27;;;;;;;0.00;0.00;;;;;;;;;;5068495;28;20020;-63
2022/08/03 05:59:52;;;;;;;0.00;0.00;;;;;;;;;;5068530;28;20028;-63
2022/08/03 06:02:18;;;;;;;0.00;0.00;;;;;;;;;;5069090;28;20259;-61
2022/08/03 06:04:43;;;;;;;0.00;0.00;;;;;;;;;;5085246;28;20265;-62
2022/08/03 06:07:08;;;;;;;0.00;0.00;;;;;;;;;;5089360;28;20067;-62
2022/08/03 06:09:33;;;;;;;0.00;0.00;;;;;;;;;;5089124;28;20262;-63
2022/08/03 06:11:58;;;;;;;0.00;0.00;;;;;;;;;;5088905;28;20590;-63
2022/08/03 06:14:24;;;;;;;0.00;0.00;;;;;;;;;;5072267;28;20300;-63
2022/08/03 06:16:49;;;;;;;0.00;0.00;;;;;;;;;;5068476;28;20020;-64
2022/08/03 06:19:14;;;;;;;0.10;0.10;;;;;;;;;;5074922;28;20279;-65
2022/08/03 06:21:39;;;;;;;0.00;0.00;;;;;;;;;;5068644;28;20255;-64
2022/08/03 06:24:05;;;;;;;0.00;0.00;;;;;;;;;;5068129;28;20107;-64
2022/08/03 06:26:31;;;;;;;0.00;0.00;;;;;;;;;;5069137;28;20469;-63
2022/08/03 06:28:56;;;;;;;0.00;0.00;;;;;;;;;;5067546;28;20023;-63
2022/08/03 06:31:22;;;;;;;0.38;0.38;;;;;;;;;;5068537;28;20382;-63
2022/08/03 06:33:48;;;;;;;0.00;0.00;;;;;;;;;;5068080;28;20020;-63
2022/08/03 06:36:13;;;;;;;0.00;0.00;;;;;;;;;;5068753;28;20765;-63
2022/08/03 06:38:38;;;;;;;0.30;0.30;;;;;;;;;;5057780;28;20527;-63
2022/08/03 06:41:03;;;;;;;0.00;0.00;;;;;;;;;;5066214;28;20377;-63
2022/08/03 06:43:28;;;;;;;0.00;0.00;;;;;;;;;;5060915;28;20025;-63
2022/08/03 06:45:54;;;;;;;0.00;0.00;;;;;;;;;;5066347;28;20251;-63
2022/08/03 06:48:19;;;;;;;0.00;0.00;;;;;;;;;;5068210;28;20278;-63
2022/08/03 06:50:44;;;;;;;0.00;0.00;;;;;;;;;;5068037;28;20589;-63
2022/08/03 06:53:09;;;;;;;0.00;0.00;;;;;;;;;;5068211;28;20115;-63
2022/08/03 06:55:35;;;;;;;0.00;0.00;;;;;;;;;;5068449;28;20063;-63
2022/08/03 06:58:00;;;;;;;0.00;0.00;;;;;;;;;;5066903;28;20024;-64
2022/08/03 07:00:25;;;;;;;0.67;0.67;;;;;;;;;;5065193;28;20345;-64
2022/08/03 07:02:51;;;;;;;0.73;0.73;;;;;;;;;;5066619;28;20330;-63
2022/08/03 07:05:16;;;;;;;0.00;0.00;;;;;;;;;;5068063;28;20025;-64
2022/08/03 07:07:41;;;;;;;0.00;0.00;;;;;;;;;;5068311;28;20054;-63
2022/08/03 07:10:07;;;;;;;0.00;0.00;;;;;;;;;;5071162;28;20477;-63
2022/08/03 07:12:33;;;;;;;0.00;0.00;;;;;;;;;;5070944;28;20043;-63
2022/08/03 07:14:59;;;;;;;0.00;0.00;;;;;;;;;;5071478;28;20038;-64
2022/08/03 07:17:24;;;;;;;0.00;0.00;;;;;;;;;;5071938;28;20028;-63
2022/08/03 07:19:50;;;;;;;0.00;0.00;;;;;;;;;;5071122;28;20040;-64
2022/08/03 07:22:15;;;;;;;0.00;0.00;;;;;;;;;;5072063;28;20029;-64
2022/08/03 07:24:40;;;;;;;0.10;0.10;;;;;;;;;;5071875;28;20024;-63
2022/08/03 07:27:06;;;;;;;0.03;0.03;;;;;;;;;;5071361;28;20347;-64
2022/08/03 07:29:32;;;;;;;0.00;0.00;;;;;;;;;;5070755;28;20020;-64
2022/08/03 07:31:58;;;;;;;2.30;1.00;;;;;;;;;;5086500;28;20515;-64
2022/08/03 07:34:23;;;;;;;0.00;0.00;;;;;;;;;;5092102;28;20047;-64
2022/08/03 07:36:48;;;;;;;0.00;0.00;;;;;;;;;;5091352;28;20397;-63
2022/08/03 07:39:13;;;;;;;0.00;0.00;;;;;;;;;;5091900;28;20262;-63
2022/08/03 07:41:38;;;;;;;0.00;0.00;;;;;;;;;;5075943;28;20032;-64
2022/08/03 07:44:04;;;;;;;0.00;0.00;;;;;;;;;;5068494;28;20275;-63
2022/08/03 07:46:29;;;;;;;0.00;0.00;;;;;;;;;;5069537;28;20274;-63
2022/08/03 07:48:54;;;;;;;0.00;0.00;;;;;;;;;;5069819;28;20282;-63
2022/08/03 07:51:20;;;;;;;0.00;0.00;;;;;;;;;;5069597;28;20484;-64
2022/08/03 07:53:45;;;;;;;0.00;0.00;;;;;;;;;;5069979;28;20055;-65
2022/08/03 07:56:10;;;;;;;0.00;0.00;;;;;;;;;;5071138;28;20025;-63
2022/08/03 07:58:35;;;;;;;0.00;0.00;;;;;;;;;;5076792;28;20389;-63
2022/08/03 08:01:01;;;;;;;0.00;0.00;;;;;;;;;;5071038;28;20277;-64
2022/08/03 08:03:26;;;;;;;0.20;0.20;;;;;;;;;;5068868;28;20029;-64
2022/08/03 08:05:52;;;;;;;0.00;0.00;;;;;;;;;;5070042;28;20016;-64
2022/08/03 08:08:17;;;;;;;0.00;0.00;;;;;;;;;;5070832;28;20314;-63
2022/08/03 08:10:42;;;;;;;0.00;0.00;;;;;;;;;;5062650;28;20026;-64
2022/08/03 08:13:08;;;;;;;0.00;0.00;;;;;;;;;;5063164;28;20988;-63
2022/08/03 08:15:33;;;;;;;0.00;0.00;;;;;;;;;;5070853;28;20012;-63
2022/08/03 08:18:00;;;;;;;0.00;0.00;;;;;;;;;;5069495;28;20094;-62
2022/08/03 08:20:26;;;;;;;0.00;0.00;;;;;;;;;;5067965;28;20023;-63
2022/08/03 08:22:51;;;;;;;0.00;0.00;;;;;;;;;;5065332;28;20055;-64
2022/08/03 08:25:17;;;;;;;0.00;0.00;;;;;;;;;;5068210;28;20055;-66
2022/08/03 08:27:44;;;;;;;0.00;0.00;;;;;;;;;;5080910;28;20047;-66
2022/08/03 08:30:09;;;;;;;0.00;0.00;;;;;;;;;;5067965;28;20028;-66
2022/08/03 08:32:36;;;;;;;0.00;0.00;;;;;;;;;;5067726;28;20035;-66
2022/08/03 08:35:01;;;;;;;0.00;0.00;;;;;;;;;;5069691;28;20024;-66
2022/08/03 08:37:26;;;;;;;0.00;0.00;;;;;;;;;;5068510;28;20058;-66
2022/08/03 08:39:51;;;;;;;0.00;0.00;;;;;;;;;;5068530;28;20032;-65
2022/08/03 08:42:17;;;;;;;0.10;0.10;;;;;;;;;;5059772;28;20043;-66
2022/08/03 08:44:42;;;;;;;0.10;0.10;;;;;;;;;;5075752;28;20568;-66
2022/08/03 08:47:08;;;;;;;0.00;0.00;;;;;;;;;;5068499;28;20108;-66
2022/08/03 08:49:34;;;;;;;0.03;0.03;;;;;;;;;;5068417;28;20314;-66
2022/08/03 08:52:02;;;;;;;0.35;0.35;;;;;;;;;;5068520;28;20016;-65
2022/08/03 08:54:28;;;;;;;0.00;0.00;;;;;;;;;;5061026;28;20032;-65
2022/08/03 08:56:55;;;;;;;0.00;0.00;;;;;;;;;;5080846;28;20074;-65
2022/08/03 08:59:21;;;;;;;0.00;0.00;;;;;;;;;;5070145;28;20108;-64
2022/08/03 09:01:46;;;;;;;0.00;0.00;;;;;;;;;;5069483;28;20107;-66
2022/08/03 09:04:11;;;;;;;0.00;0.00;;;;;;;;;;5065741;28;20017;-63
2022/08/03 09:06:37;;;;;;;0.00;0.00;;;;;;;;;;5062591;28;20271;-63
2022/08/03 09:09:02;;;;;;;0.00;0.00;;;;;;;;;;5066505;28;20051;-64
2022/08/03 09:11:27;;;;;;;0.00;0.00;;;;;;;;;;5067372;28;20504;-64
2022/08/03 09:13:52;;;;;;;0.00;0.00;;;;;;;;;;5072555;28;20481;-63
2022/08/03 09:16:19;;;;;;;0.00;0.00;;;;;;;;;;5063925;28;20068;-63
2022/08/03 09:18:45;;;;;;;0.00;0.00;;;;;;;;;;5068495;28;20313;-63
2022/08/03 09:21:11;;;;;;;0.00;0.00;;;;;;;;;;5074276;28;20437;-63
2022/08/03 09:23:47;;;;;;;0.00;0.00;;;;;;;;;;5063895;28;20024;-64
2022/08/03 09:26:18;;;;;;;0.00;0.00;;;;;;;;;;5065218;28;20359;-64
2022/08/03 09:28:44;;;;;;;0.00;0.00;;;;;;;;;;5061331;28;20017;-63
2022/08/03 09:31:09;;;;;;;0.00;0.00;;;;;;;;;;5053890;28;20246;-63
2022/08/03 09:33:45;;;;;;;0.00;0.00;;;;;;;;;;5070084;28;20020;-63
2022/08/03 09:36:30;;;;;;;0.00;0.00;;;;;;;;;;5064917;28;20296;-63
2022/08/03 09:39:04;;;;;;;0.00;0.00;;;;;;;;;;5070743;28;20020;-64
2022/08/03 09:41:30;;;;;;;0.00;0.00;;;;;;;;;;5052050;28;20028;-65
2022/08/03 09:43:56;;;;;;;0.00;0.00;;;;;;;;;;5068439;28;20398;-66
2022/08/03 09:46:21;;;;;;;0.00;0.00;;;;;;;;;;5069191;28;20012;-64
2022/08/03 09:48:46;;;;;;;0.00;0.00;;;;;;;;;;5069631;28;20048;-66
2022/08/03 09:51:14;;;;;;;0.00;0.00;;;;;;;;;;5068403;28;20017;-67
2022/08/03 09:53:43;;;;;;;0.00;0.00;;;;;;;;;;5063039;28;20462;-68
2022/08/03 09:56:08;;;;;;;0.00;0.00;;;;;;;;;;5062329;28;20155;-67
2022/08/03 09:58:43;;;;;;;0.00;0.00;;;;;;;;;;5049815;28;20099;-67
2022/08/03 10:01:08;;;;;;;0.00;0.00;;;;;;;;;;5068793;28;20274;-68
2022/08/03 10:03:35;;;;;;;0.22;0.22;;;;;;;;;;5068992;28;20016;-65
2022/08/03 10:06:15;;;;;;;0.00;0.00;;;;;;;;;;5066503;28;20027;-66
2022/08/03 10:08:41;;;;;;;0.00;0.00;;;;;;;;;;5068488;28;20031;-66
2022/08/03 10:11:06;;;;;;;0.00;0.00;;;;;;;;;;5067655;28;20024;-65
2022/08/03 10:13:32;;;;;;;0.00;0.00;;;;;;;;;;5068511;28;20024;-66
2022/08/03 10:15:57;;;;;;;0.00;0.00;;;;;;;;;;5068912;28;20255;-65
2022/08/03 10:18:22;;;;;;;0.00;0.00;;;;;;;;;;5069266;28;20025;-65
2022/08/03 10:20:50;;;;;;;0.00;0.00;;;;;;;;;;5063187;28;20033;-66
2022/08/03 10:23:16;;;;;;;0.00;0.00;;;;;;;;;;5064193;28;20270;-65
2022/08/03 10:25:42;;;;;;;0.00;0.00;;;;;;;;;;5068717;28;20024;-66
2022/08/03 10:28:11;;;;;;;0.00;0.00;;;;;;;;;;5068034;28;20107;-64
2022/08/03 10:30:37;;;;;;;0.00;0.00;;;;;;;;;;5069100;28;20113;-66
2022/08/03 10:33:11;;;;;;;0.00;0.00;;;;;;;;;;5067672;28;20369;-66
2022/08/03 10:35:38;;;;;;;0.00;0.00;;;;;;;;;;5060144;28;20112;-65
2022/08/03 10:38:08;;;;;;;0.00;0.00;;;;;;;;;;5068018;28;20600;-65
2022/08/03 10:40:33;;;;;;;0.00;0.00;;;;;;;;;;5068782;28;20027;-66
2022/08/03 10:43:06;;;;;;;0.00;0.00;;;;;;;;;;5068667;28;20020;-66
2022/08/03 10:45:33;;;;;;;0.00;0.00;;;;;;;;;;5072524;28;20017;-66
2022/08/03 10:47:58;;;;;;;0.00;0.00;;;;;;;;;;5071786;28;20056;-66
2022/08/03 10:50:24;;;;;;;0.00;0.00;;;;;;;;;;5072634;28;20060;-66
2022/08/03 10:52:52;;;;;;;0.00;0.00;;;;;;;;;;5072249;28;20419;-66
2022/08/03 10:58:02;;;;;;;0.03;0.03;;;;;;;;;;5071496;28;19927;-66
2022/08/03 11:00:29;;;;;;;0.00;0.00;;;;;;;;;;5087511;28;20461;-65
2022/08/03 11:03:03;;;;;;;0.00;0.00;;;;;;;;;;5078059;28;20057;-66
2022/08/03 11:05:38;;;;;;;0.38;0.38;;;;;;;;;;5071971;28;20044;-66
2022/08/03 11:08:22;;;;;;;0.00;0.00;;;;;;;;;;5071478;28;20025;-66
2022/08/03 11:10:48;;;;;;;0.00;0.00;;;;;;;;;;5072028;28;20070;-66
2022/08/03 11:13:14;;;;;;;0.00;0.00;;;;;;;;;;5053569;28;20032;-66
2022/08/03 11:15:42;;;;;;;0.05;0.05;;;;;;;;;;5072073;28;20024;-65
2022/08/03 11:18:09;;;;;;;0.00;0.00;;;;;;;;;;5071026;28;20032;-65
2022/08/03 11:20:45;;;;;;;0.00;0.00;;;;;;;;;;5071700;28;20086;-66
2022/08/03 11:23:10;;;;;;;0.00;0.00;;;;;;;;;;5071635;28;20020;-65
2022/08/03 11:25:54;;;;;;;0.00;0.00;;;;;;;;;;5071386;28;20024;-65
2022/08/03 11:28:29;;;;;;;0.47;0.47;;;;;;;;;;5071830;28;20374;-65
2022/08/03 11:30:54;;;;;;;0.00;0.00;;;;;;;;;;5068303;28;20027;-66
2022/08/03 11:33:29;;;;;;;0.00;0.00;;;;;;;;;;5064964;28;20092;-65
2022/08/03 11:36:01;;;;;;;0.00;0.00;;;;;;;;;;5070994;28;20255;-65
2022/08/03 11:38:26;;;;;;;0.52;0.52;;;;;;;;;;5053673;28;20024;-65
2022/08/03 11:40:52;;;;;;;0.00;0.00;;;;;;;;;;5071260;28;20431;-65
2022/08/03 11:43:29;;;;;;;0.00;0.00;;;;;;;;;;5071073;28;20737;-65
2022/08/03 11:46:04;;;;;;;0.00;0.00;;;;;;;;;;5071028;28;20404;-66
2022/08/03 11:48:33;;;;;;;0.15;0.15;;;;;;;;;;5069454;28;20041;-66
2022/08/03 11:51:02;;;;;;;0.10;0.10;;;;;;;;;;5069612;28;20040;-66
2022/08/03 11:53:27;;;;;;;0.00;0.00;;;;;;;;;;5071226;28;20024;-66
2022/08/03 11:55:52;;;;;;;0.00;0.00;;;;;;;;;;5062863;28;20028;-67
2022/08/03 11:58:21;;;;;;;0.00;0.00;;;;;;;;;;5078199;28;20099;-65
2022/08/03 12:00:46;;;;;;;;;;;;;;;;;;5074301;28;20406;-65
2022/08/03 12:03:13;;;;;;;0.00;0.00;;;;;;;;;;5071316;28;19952;-66
2022/08/03 12:05:38;;;;;;;0.00;0.00;;;;;;;;;;5076145;28;20028;-65
2022/08/03 12:08:04;;;;;;;1.33;1.23;;;;;;;;;;5090772;28;20537;-65
2022/08/03 12:10:29;;;;;;;0.00;0.00;;;;;;;;;;5086316;28;20035;-65
2022/08/03 12:12:56;;;;;;;0.00;0.00;;;;;;;;;;5070558;28;20021;-66
2022/08/03 12:15:24;;;;;;;0.77;0.28;;;;;;;;;;5071123;28;20016;-65
2022/08/03 12:17:50;;;;;;;0.00;0.00;;;;;;;;;;5075722;28;20039;-66
2022/08/03 12:20:20;;;;;;;0.00;0.00;;;;;;;;;;5075638;28;20024;-66
2022/08/03 12:22:45;;;;;;;0.00;0.00;;;;;;;;;;5070854;28;20266;-66
2022/08/03 12:25:19;;;;;;;0.17;0.17;;;;;;;;;;5071324;28;20728;-65
2022/08/03 12:27:44;;;;;;;0.00;0.00;;;;;;;;;;5079446;28;20259;-66
2022/08/03 12:30:10;;;;;;;0.00;0.00;;;;;;;;;;5074175;28;20713;-65
2022/08/03 12:32:35;;;;;;;0.00;0.00;;;;;;;;;;5068944;28;20358;-65
2022/08/03 12:35:03;;;;;;;0.00;0.00;;;;;;;;;;5079447;28;20035;-66
2022/08/03 12:37:28;;;;;;;0.00;0.00;;;;;;;;;;5090439;28;20350;-66
2022/08/03 12:39:55;;;;;;;0.00;0.00;;;;;;;;;;5072131;28;20031;-65
2022/08/03 12:42:20;;;;;;;0.00;0.00;;;;;;;;;;5090659;28;20027;-66
2022/08/03 12:44:47;;;;;;;0.00;0.00;;;;;;;;;;5090635;28;20016;-66
2022/08/03 12:47:13;;;;;;;0.00;0.00;;;;;;;;;;5079900;28;20021;-65
2022/08/03 12:49:45;;;;;;;0.00;0.00;;;;;;;;;;5089584;28;20059;-62
2022/08/03 12:52:10;;;;;;;0.00;0.00;;;;;;;;;;5089649;28;20032;-63
2022/08/03 12:54:37;;;;;;;0.10;0.10;;;;;;;;;;5085781;28;20062;-64
2022/08/03 12:57:03;;;;;;;0.00;0.00;;;;;;;;;;5046489;28;20028;-66
2022/08/03 12:59:29;;;;;;;0.00;0.00;;;;;;;;;;5058933;28;20032;-66
2022/08/03 13:01:55;;;;;;;0.00;0.00;;;;;;;;;;5055127;28;20059;-67
2022/08/03 13:04:29;;;;;;;0.00;0.00;;;;;;;;;;5070018;28;20424;-67
2022/08/03 13:07:04;;;;;;;0.00;0.00;;;;;;;;;;5078812;28;20262;-67
2022/08/03 13:09:39;;;;;;;0.00;0.00;;;;;;;;;;5072486;28;20055;-68
2022/08/03 13:12:31;;;;;;;0.20;0.20;;;;;;;;;;5069661;28;20389;-67
2022/08/03 13:14:57;;;;;;;0.32;0.32;;;;;;;;;;5049148;28;20036;-68
2022/08/03 13:17:23;;;;;;;0.00;0.00;;;;;;;;;;5070229;28;20021;-65
2022/08/03 13:19:48;;;;;;;0.38;0.38;;;;;;;;;;5072472;28;20036;-66
2022/08/03 13:22:18;;;;;;;0.00;0.00;;;;;;;;;;5069305;28;20020;-66
2022/08/03 13:24:44;;;;;;;1.13;0.60;;;;;;;;;;5072643;28;20030;-67
2022/08/03 13:27:10;;;;;;;0.35;0.35;;;;;;;;;;5067630;28;20043;-66
2022/08/03 13:29:35;;;;;;;0.32;0.32;;;;;;;;;;5069344;28;20012;-66
2022/08/03 13:32:01;;;;;;;0.00;0.00;;;;;;;;;;5069090;28;20043;-66
2022/08/03 13:34:26;;;;;;;0.00;0.00;;;;;;;;;;5058811;28;20655;-67
2022/08/03 13:36:52;;;;;;;0.35;0.35;;;;;;;;;;5061775;28;20040;-67
2022/08/03 13:39:18;;;;;;;0.13;0.13;;;;;;;;;;5060998;28;20028;-67
2022/08/03 13:41:44;;;;;;;0.00;0.00;;;;;;;;;;5059294;28;20016;-66
2022/08/03 13:44:09;;;;;;;0.10;0.10;;;;;;;;;;5065852;28;20086;-67
2022/08/03 13:46:34;;;;;;;0.00;0.00;;;;;;;;;;5073795;28;20027;-66
2022/08/03 13:48:59;;;;;;;0.00;0.00;;;;;;;;;;5074811;28;20047;-67
2022/08/03 13:51:25;;;;;;;0.00;0.00;;;;;;;;;;5063865;28;20619;-67
2022/08/03 13:53:51;;;;;;;0.00;0.00;;;;;;;;;;5062698;28;20259;-67
2022/08/03 13:56:16;;;;;;;0.00;0.00;;;;;;;;;;5065831;28;20044;-67
2022/08/03 13:58:41;;;;;;;0.25;0.25;;;;;;;;;;5060134;28;20020;-68
2022/08/03 14:01:06;;;;;;;0.00;0.00;;;;;;;;;;5062213;28;20017;-67
2022/08/03 14:03:32;;;;;;;0.00;0.00;;;;;;;;;;5066549;28;20274;-67
2022/08/03 14:05:57;;;;;;;0.00;0.00;;;;;;;;;;5064620;28;20013;-67
2022/08/03 14:08:22;;;;;;;0.00;0.00;;;;;;;;;;5063727;28;20254;-67
2022/08/03 14:10:47;;;;;;;0.00;0.00;;;;;;;;;;5062241;28;20787;-67
2022/08/03 14:13:14;;;;;;;0.30;0.30;;;;;;;;;;5060136;28;21104;-67
2022/08/03 14:15:39;;;;;;;0.00;0.00;;;;;;;;;;5061752;28;20029;-67
2022/08/03 14:18:08;;;;;;;0.00;0.00;;;;;;;;;;5067989;28;20029;-68
2022/08/03 14:20:33;;;;;;;0.10;0.10;;;;;;;;;;5069452;28;20028;-68
2022/08/03 14:22:58;;;;;;;0.00;0.00;;;;;;;;;;5062988;28;20020;-68
2022/08/03 14:25:24;;;;;;;0.00;0.00;;;;;;;;;;5068960;28;20297;-67
2022/08/03 14:27:49;;;;;;;0.00;0.00;;;;;;;;;;5069519;28;20020;-68
2022/08/03 14:30:14;;;;;;;0.00;0.00;;;;;;;;;;5063561;28;20024;-68
2022/08/03 14:32:40;;;;;;;0.00;0.00;;;;;;;;;;5062564;28;20614;-68
2022/08/03 14:35:05;;;;;;;0.00;0.00;;;;;;;;;;5062417;28;20028;-68
2022/08/03 14:37:32;;;;;;;0.80;0.80;;;;;;;;;;5059438;28;20039;-67
2022/08/03 14:39:57;;;;;;;0.00;0.00;;;;;;;;;;5067502;28;20017;-68
2022/08/03 14:42:22;;;;;;;0.00;0.00;;;;;;;;;;5066349;28;20017;-67
2022/08/03 14:44:48;;;;;;;0.00;0.00;;;;;;;;;;5065093;28;20053;-69
2022/08/03 14:47:13;;;;;;;0.00;0.00;;;;;;;;;;5062392;28;20200;-67
2022/08/03 14:49:39;;;;;;;0.15;0.15;;;;;;;;;;5065177;28;20075;-66
2022/08/03 14:52:04;;;;;;;0.00;0.00;;;;;;;;;;5068136;28;20028;-67
2022/08/03 14:54:30;;;;;;;0.00;0.00;;;;;;;;;;5071992;28;20035;-67
2022/08/03 14:56:55;;;;;;;0.00;0.00;;;;;;;;;;5066320;28;20079;-68
2022/08/03 14:59:20;;;;;;;0.00;0.00;;;;;;;;;;5072168;28;20023;-67
2022/08/03 15:01:46;;;;;;;0.00;0.00;;;;;;;;;;5062230;28;20013;-67
2022/08/03 15:04:11;;;;;;;0.00;0.00;;;;;;;;;;5069829;28;20032;-67
2022/08/03 15:06:36;;;;;;;0.20;0.20;;;;;;;;;;5073783;28;20025;-65